Calverton, NY (11933)

10:19 PM EDT on July 30, 2016 (GMT -0400)
Wildwood Hills | | Change Station

Elev 128 ft 40.97 °N, 72.81 °W | Updated 10 seconds ago

Light Rain
Light Rain
75.2 °F
Feels Like 74 °F
N
0.7
Wind Variable Wind from SW
Gusts 2.2 mph

Today
High -- | Low -- °F
--% Chance of Precip.
Yesterday
High -- | Low -- °F
Precip. -- in
Pressure 30.07 in
Visibility 8.0 miles
Clouds Mostly Cloudy 1500 ft
Overcast 2100 ft
Heat Index 74 °F
Dew Point 73 °F
Humidity 94%
Rainfall 0.00 in
Snow Depth Not available.
5:45 AM 8:08 PM
Waning Crescent, 9% visible
SPECI KHWV 310210Z AUTO 13003KT 8SM -RA BKN015 OVC021 23/23 A3007 RMK AO2 RAB04 P0000 T02330228 TSNO
Pressure 30.07 in
Visibility 8.0 miles
Clouds Mostly Cloudy 1500 ft
Overcast 2100 ft
Heat Index 74 °F
Dew Point 73 °F
Humidity 94%
Rainfall 0.00 in
Snow Depth Not available.
5:45 AM 8:08 PM
Waning Crescent, 9% visible
SPECI KHWV 310210Z AUTO 13003KT 8SM -RA BKN015 OVC021 23/23 A3007 RMK AO2 RAB04 P0000 T02330228 TSNO

10-Day Weather Forecast

Almanac

Astronomy

Jul. 30, 2016 Rise Set
Actual Time
Civil Twilight
Nautical Twilight
Astronomical Twilight
Moon
Length of Visible Light
Length of Day
Tomorrow will be .
, % of the Moon is Illuminated

Today's Extremes

State Highs State Lows

Community

WunderPhotos

Upload Photos

1,928,706 photos uploaded!

WunderBlog® & News

Nearby

Air Quality

  Air Quality AQ Index Pollutant
Not available.

Snow Depth

Station Depth Elevation

Earthquake Activity

City Distance Mag. Time & Date
Minimum magnitude displayed is 2.5.

Coastal Water Temperatures

Place Temperature

Stations

Nearby Weather Stations

Station Location Temp. Windchill Dew Point Humidity Wind Precip. Elev Updated Type
                   

Watches & Warnings

There are currently no watches in effect.